Map

Track Data

SID SEASON NUMBER BASIN SUBBASIN NAME ISO_TIME NATURE LAT LON WMO_WIND WMO_PRES WMO_AGENCY TRACK_TYPE DIST2LAND LANDFALL IFLAG USA_AGENCY USA_ATCF_ID USA_LAT USA_LON USA_RECORD USA_STATUS USA_WIND USA_PRES USA_SSHS USA_R34_NE USA_R34_SE USA_R34_SW USA_R34_NW USA_R50_NE USA_R50_SE USA_R50_SW USA_R50_NW USA_R64_NE USA_R64_SE USA_R64_SW USA_R64_NW USA_POCI USA_ROCI USA_RMW USA_EYE TOKYO_LAT TOKYO_LON TOKYO_GRADE TOKYO_WIND TOKYO_PRES TOKYO_R50_DIR TOKYO_R50_LONG TOKYO_R50_SHORT TOKYO_R30_DIR TOKYO_R30_LONG TOKYO_R30_SHORT TOKYO_LAND CMA_LAT CMA_LON CMA_CAT CMA_WIND CMA_PRES HKO_LAT HKO_LON HKO_CAT HKO_WIND HKO_PRES NEWDELHI_LAT NEWDELHI_LON NEWDELHI_GRADE NEWDELHI_WIND NEWDELHI_PRES NEWDELHI_CI NEWDELHI_DP NEWDELHI_POCI REUNION_LAT REUNION_LON REUNION_TYPE REUNION_WIND REUNION_PRES REUNION_TNUM REUNION_CI REUNION_RMW REUNION_R34_NE REUNION_R34_SE REUNION_R34_SW REUNION_R34_NW REUNION_R50_NE REUNION_R50_SE REUNION_R50_SW REUNION_R50_NW REUNION_R64_NE REUNION_R64_SE REUNION_R64_SW REUNION_R64_NW BOM_LAT BOM_LON BOM_TYPE BOM_WIND BOM_PRES BOM_TNUM BOM_CI BOM_RMW BOM_R34_NE BOM_R34_SE BOM_R34_SW BOM_R34_NW BOM_R50_NE BOM_R50_SE BOM_R50_SW BOM_R50_NW BOM_R64_NE BOM_R64_SE BOM_R64_SW BOM_R64_NW BOM_ROCI BOM_POCI BOM_EYE BOM_POS_METHOD BOM_PRES_METHOD NADI_LAT NADI_LON NADI_CAT NADI_WIND NADI_PRES WELLINGTON_LAT WELLINGTON_LON WELLINGTON_WIND WELLINGTON_PRES DS824_LAT DS824_LON DS824_STAGE DS824_WIND DS824_PRES TD9636_LAT TD9636_LON TD9636_STAGE TD9636_WIND TD9636_PRES TD9635_LAT TD9635_LON TD9635_WIND TD9635_PRES TD9635_ROCI NEUMANN_LAT NEUMANN_LON NEUMANN_CLASS NEUMANN_WIND NEUMANN_PRES MLC_LAT MLC_LON MLC_CLASS MLC_WIND MLC_PRES USA_GUST BOM_GUST BOM_GUST_PER REUNION_GUST REUNION_GUST_PER USA_SEAHGT USA_SEARAD_NE USA_SEARAD_SE USA_SEARAD_SW USA_SEARAD_NW STORM_SPEED STORM_DIR
1995229N12144 1995 47 WP MM JANIS 1995-08-17 00:00:00 NR 12.0000 144.000 main 1605 1605 O_____________ jtwc_wp WP101995 12.0000 144.000 15 -1 25 354
1995229N12144 1995 47 WP MM JANIS 1995-08-17 03:00:00 NR 13.2101 143.875 main 1739 1739 P_____________ WP101995 13.2101 143.875 15 -1 23 353
1995229N12144 1995 47 WP MM JANIS 1995-08-17 06:00:00 NR 14.3000 143.700 main 1864 1864 O_____________ jtwc_wp WP101995 14.3000 143.700 15 -1 20 348
1995229N12144 1995 47 WP MM JANIS 1995-08-17 09:00:00 NR 15.1824 143.437 main 1963 1941 P_____________ WP101995 15.1824 143.437 15 -1 17 340
1995229N12144 1995 47 WP MM JANIS 1995-08-17 12:00:00 NR 15.9000 143.100 main 1943 1922 O_____________ jtwc_wp WP101995 15.9000 143.100 15 -1 15 334
1995229N12144 1995 47 WP MM JANIS 1995-08-17 15:00:00 NR 16.5523 142.737 main 1916 1888 P_____________ WP101995 16.5523 142.737 15 -1 14 327
1995229N12144 1995 47 WP MM JANIS 1995-08-17 18:00:00 NR 17.1000 142.300 main 1888 1852 O_____________ jtwc_wp WP101995 17.1000 142.300 15 -1 14 318
1995229N12144 1995 47 WP MM JANIS 1995-08-17 21:00:00 NR 17.6026 141.765 main 1852 1792 P_____________ WP101995 17.6026 141.765 15 -1 14 311
1995229N12144 1995 47 WP MM JANIS 1995-08-18 00:00:00 NR 18.0000 141.200 main 1792 1736 O_____________ jtwc_wp WP101995 18.0000 141.200 15 -1 12 305
1995229N12144 1995 47 WP MM JANIS 1995-08-18 03:00:00 NR 18.2947 140.707 main 1736 1690 P_____________ WP101995 18.2947 140.707 15 -1 11 298
1995229N12144 1995 47 WP MM JANIS 1995-08-18 06:00:00 NR 18.5000 140.200 main 1690 1649 O_____________ jtwc_wp WP101995 18.5000 140.200 15 -1 11 289
1995229N12144 1995 47 WP MM JANIS 1995-08-18 09:00:00 NR 18.6574 139.615 main 1639 1597 P_____________ WP101995 18.6574 139.615 15 -1 12 285
1995229N12144 1995 47 WP MM JANIS 1995-08-18 12:00:00 NR 18.8000 139.000 main 1597 1547 O_____________ jtwc_wp WP101995 18.8000 139.000 15 -1 12 286
1995229N12144 1995 47 WP MM JANIS 1995-08-18 15:00:00 NR 18.9922 138.407 main 1547 1498 P_____________ WP101995 18.9922 138.407 15 -1 12 289
1995229N12144 1995 47 WP MM JANIS 1995-08-18 18:00:00 NR 19.2000 137.800 main 1498 1450 O_____________ jtwc_wp WP101995 19.2000 137.800 15 -1 13 289
1995229N12144 1995 47 WP MM JANIS 1995-08-18 21:00:00 NR 19.4074 137.150 main 1450 1399 P_____________ WP101995 19.4074 137.150 17 -1 13 288
1995229N12144 1995 47 WP MM JANIS 1995-08-19 00:00:00 NR 19.6000 136.500 main 1399 1365 O_____________ jtwc_wp WP101995 19.6000 136.500 20 -1 12 287
1995229N12144 1995 47 WP MM JANIS 1995-08-19 03:00:00 NR 19.7571 135.907 main 1355 1322 P_____________ WP101995 19.7571 135.907 20 -1 12 285
1995229N12144 1995 47 WP MM JANIS 1995-08-19 06:00:00 NR 19.9000 135.300 main 1322 1281 O_____________ jtwc_wp WP101995 19.9000 135.300 20 -1 13 284
1995229N12144 1995 47 WP MM JANIS 1995-08-19 09:00:00 NR 20.0576 134.593 main 1278 1231 P_____________ WP101995 20.0576 134.593 20 -1 14 283
1995229N12144 1995 47 WP MM JANIS 1995-08-19 12:00:00 NR 20.2000 133.900 main 1231 1183 O_____________ jtwc_wp WP101995 20.2000 133.900 20 -1 12 282
1995229N12144 1995 47 WP MM JANIS 1995-08-19 15:00:00 NR 20.3071 133.327 main 1173 1123 P_____________ WP101995 20.3071 133.327 20 -1 11 281
1995229N12144 1995 47 WP MM JANIS 1995-08-19 18:00:00 NR 20.4000 132.800 main 1123 1074 O_____________ jtwc_wp WP101995 20.4000 132.800 20 -1 10 282
1995229N12144 1995 47 WP MM JANIS 1995-08-19 21:00:00 NR 20.5223 132.250 main 1074 1015 P_____________ WP101995 20.5223 132.250 20 -1 11 281
1995229N12144 1995 47 WP MM JANIS 1995-08-20 00:00:00 NR 20.6000 131.700 main 1015 954 O_____________ jtwc_wp WP101995 20.6000 131.700 20 -1 11 272
1995229N12144 1995 47 WP MM JANIS 1995-08-20 03:00:00 NR 20.5651 131.112 main 954 901 P_____________ WP101995 20.5651 131.112 22 -1 10 264
1995229N12144 1995 47 WP MM JANIS 1995-08-20 06:00:00 NR 20.5000 130.600 main 901 870 O_____________ jtwc_wp WP101995 20.5000 130.600 25 -1 8 265
1995229N12144 1995 47 WP MM JANIS 1995-08-20 09:00:00 NR 20.4997 130.255 main 870 840 P_____________ WP101995 20.4997 130.255 25 -1 6 270
1995229N12144 1995 47 WP MM JANIS 1995-08-20 12:00:00 NR 20.5000 130.000 main 840 810 O_____________ jtwc_wp WP101995 20.5000 130.000 25 -1 5 266
1995229N12144 1995 47 WP MM JANIS 1995-08-20 15:00:00 NR 20.4650 129.735 main 810 810 P_____________ WP101995 20.4650 129.735 25 -1 2 173
1995229N12144 1995 47 WP MM JANIS 1995-08-20 18:00:00 TS 20.3333 130.000 1004 tokyo main 835 832 OOO___________ jtwc_wp WP101995 20.4000 129.500 25 -1 20.2000 131.000 2 1004 0 0 0 20.2000 131.000 1 23 1004 3 136
1995229N12144 1995 47 WP MM JANIS 1995-08-20 21:00:00 TS 20.2213 129.987 main 832 820 PPP___________ WP101995 20.2925 129.232 27 -1 20.1501 130.742 2 1004 0 0 20.1501 130.742 1 26 1003 2 197
1995229N12144 1995 47 WP MM JANIS 1995-08-21 00:00:00 TS 20.1400 129.940 1004 tokyo main 820 820 OOO___________ jtwc_wp WP101995 20.2000 129.100 30 -1 20.1000 130.500 2 1004 0 0 0 20.1000 130.500 1 29 1002 1 196
1995229N12144 1995 47 WP MM JANIS 1995-08-21 03:00:00 TS 20.0950 129.937 main 820 820 PPP___________ WP101995 20.1850 129.240 30 -1 20.0500 130.285 2 1003 0 0 20.0500 130.285 1 29 1002 1 202
1995229N12144 1995 47 WP MM JANIS 1995-08-21 06:00:00 TS 20.0667 129.900 1002 tokyo main 820 807 OOO___________ jtwc_wp WP101995 20.2000 129.500 30 -1 20.0000 130.100 2 1002 0 0 0 20.0000 130.100 1 29 1002 1 229
1995229N12144 1995 47 WP MM JANIS 1995-08-21 09:00:00 TS 20.0133 129.837 main 807 807 PPP___________ WP101995 20.1925 129.700 32 -1 19.9275 129.898 2 1002 0 0 19.9200 129.912 1 31 1000 1 213
1995229N12144 1995 47 WP MM JANIS 1995-08-21 12:00:00 TS 19.9923 129.854 1002 tokyo main 817 817 OOOO__________ jtwc_wp WP101995 20.2000 129.900 35 0 19.9000 129.800 2 1002 0 0 0 19.9000 129.800 2 34 998 19.9000 130.100 TD 30 1000 1 70
1995229N12144 1995 47 WP MM JANIS 1995-08-21 15:00:00 TS 20.0639 129.981 main 830 830 PPPP__________ WP101995 20.2275 130.108 37 0 19.9701 129.920 2 1001 0 0 20.0275 129.805 2 34 998 19.9975 130.203 TD 32 999 3 55
1995229N12144 1995 47 WP MM JANIS 1995-08-21 18:00:00 TS 20.1800 130.140 35 1000 tokyo main 842 842 OOOO__________ jtwc_wp WP101995 20.3000 130.300 40 0 20.1000 130.100 3 35 1000 0 3 180 90 0 20.2000 129.900 2 34 998 20.1000 130.300 TS 35 998 4 51
1995229N12144 1995 47 WP MM JANIS 1995-08-21 21:00:00 TS 20.3012 130.291 main 865 865 PPPP__________ WP101995 20.4125 130.487 42 0 20.2650 130.195 3 37 1000 0 3 190 95 20.3075 130.102 2 36 998 20.2200 130.380 TS 37 996 3 36
1995229N12144 1995 47 WP MM JANIS 1995-08-22 00:00:00 TS 20.4500 130.350 40 1000 tokyo main 881 870 OOOO__________ jtwc_wp WP101995 20.6000 130.600 45 0 20.4000 130.200 3 40 1000 0 3 200 100 0 20.4000 130.200 2 38 998 20.4000 130.400 TS 40 994 3 353
1995229N12144 1995 47 WP MM JANIS 1995-08-22 03:00:00 TS 20.5950 130.254 main 873 856 PPPP__________ WP101995 20.8774 130.602 45 0 20.3624 130.110 3 40 1000 0 3 200 100 20.4702 129.952 2 38 998 20.6699 130.352 TS 40 994 5 321
1995229N12144 1995 47 WP MM JANIS 1995-08-22 06:00:00 TS 20.8000 130.050 40 1000 tokyo main 859 846 OOOO__________ jtwc_wp WP101995 21.2000 130.500 45 0 20.4000 129.900 3 40 1000 0 3 200 100 0 20.6000 129.600 2 38 998 21.0000 130.200 TS 40 994 6 322
1995229N12144 1995 47 WP MM JANIS 1995-08-22 09:00:00 TS 21.1017 129.836 main 840 828 PPPP__________ WP101995 21.4998 130.367 45 0 20.7400 129.588 3 40 1000 0 3 220 110 20.8548 129.415 2 38 996 21.3122 129.974 TS 37 994 8 324
1995229N12144 1995 47 WP MM JANIS 1995-08-22 12:00:00 TS 21.4750 129.525 40 1000 tokyo main 828 795 OOOO__________ jtwc_wp WP101995 21.8000 130.100 45 0 21.2000 129.200 3 40 1000 0 2 240 120 0 21.2000 129.200 2 38 995 21.7000 129.600 TS 35 994 10 317
1995229N12144 1995 47 WP MM JANIS 1995-08-22 15:00:00 TS 21.8499 129.100 main 795 726 PPPP__________ WP101995 22.0624 129.667 45 0 21.5623 128.822 3 40 999 0 2 255 120 21.5475 128.845 2 38 995 22.2274 129.068 TS 35 994 12 313
1995229N12144 1995 47 WP MM JANIS 1995-08-22 18:00:00 TS 22.3000 128.575 40 998 tokyo main 726 659 OOOO__________ jtwc_wp WP101995 22.4000 129.100 45 0 22.0000 128.400 3 40 998 0 2 270 120 0 22.0000 128.400 2 38 995 22.8000 128.400 TS 35 994 14 316
1995229N12144 1995 47 WP MM JANIS 1995-08-22 21:00:00 TS 22.8611 128.028 main 645 571 PPPP__________ WP101995 22.9197 128.495 45 0 22.6051 127.995 3 37 998 0 2 285 120 22.6044 127.967 2 38 995 23.3151 127.657 TS 35 994 16 317
1995229N12144 1995 47 WP MM JANIS 1995-08-23 00:00:00 TS 23.4750 127.375 35 998 tokyo main 569 478 OOOO__________ jtwc_wp WP101995 23.5000 127.800 45 0 23.3000 127.400 3 35 998 0 2 300 120 0 23.3000 127.400 2 38 995 23.8000 126.900 TS 35 994 18 311
1995229N12144 1995 47 WP MM JANIS 1995-08-23 03:00:00 TS 24.0636 126.541 35 998 tokyo main 465 385 POPP__________ WP101995 24.0152 127.000 42 0 24.0000 126.500 3 35 998 0 2 300 120 0 24.0537 126.537 2 38 995 24.2723 126.205 TS 35 994 19 309
1995229N12144 1995 47 WP MM JANIS 1995-08-23 06:00:00 TS 24.6412 125.800 35 998 tokyo main 385 322 OOOO__________ jtwc_wp WP101995 24.5000 126.200 40 0 24.7000 125.600 3 35 998 0 2 300 120 0 24.7000 125.700 2 38 995 24.7000 125.600 TS 35 994 16 309
1995229N12144 1995 47 WP MM JANIS 1995-08-23 09:00:00 TS 25.0797 125.149 35 998 tokyo main 312 285 POPP__________ WP101995 24.9874 125.483 37 0 25.2000 124.800 3 35 998 0 2 300 120 0 25.0517 125.216 2 38 995 25.0797 125.097 TS 35 994 13 310
1995229N12144 1995 47 WP MM JANIS 1995-08-23 12:00:00 TS 25.4500 124.750 40 996 tokyo main 286 262 OOOO__________ jtwc_wp WP101995 25.4000 124.900 35 0 25.7000 124.500 3 40 996 0 2 270 120 0 25.3000 124.900 2 38 995 25.4000 124.700 TS 35 994 9 316
1995229N12144 1995 47 WP MM JANIS 1995-08-23 15:00:00 TS 25.7504 124.442 40 996 tokyo main 256 247 POPP__________ WP101995 25.6869 124.512 37 0 26.0000 124.300 3 40 996 0 2 240 150 0 25.6423 124.585 2 38 995 25.6723 124.370 TS 37 994 8 318
1995229N12144 1995 47 WP MM JANIS 1995-08-23 18:00:00 TS 26.0250 124.175 40 996 tokyo main 247 232 OOOO__________ jtwc_wp WP101995 25.9000 124.200 40 0 26.3000 124.100 3 40 996 0 2 240 150 0 26.0000 124.300 2 38 995 25.9000 124.100 TS 40 994 7 315
1995229N12144 1995 47 WP MM JANIS 1995-08-23 21:00:00 TS 26.2580 123.879 main 239 223 PPPP__________ WP101995 26.0925 123.800 42 0 26.4669 123.880 3 40 995 0 2 240 150 26.3725 123.993 2 43 990 26.0999 123.842 TS 42 992 7 310
1995229N12144 1995 47 WP MM JANIS 1995-08-24 00:00:00 TS 26.4750 123.575 40 994 tokyo main 231 224 OOOO__________ jtwc_wp WP101995 26.3000 123.400 45 0 26.6000 123.600 3 40 994 0 2 240 150 0 26.7000 123.700 3 48 985 26.3000 123.600 TS 45 990 7 310
1995229N12144 1995 47 WP MM JANIS 1995-08-24 03:00:00 TS 26.7213 123.253 main 230 200 PPPP__________ WP101995 26.5849 123.035 47 0 26.8278 123.185 3 42 993 0 2 225 150 26.9299 123.442 3 48 985 26.5425 123.350 TS 45 990 8 312
1995229N12144 1995 47 WP MM JANIS 1995-08-24 06:00:00 TS 26.9750 122.950 45 992 tokyo main 200 163 OOOO__________ jtwc_wp WP101995 26.9000 122.700 50 0 27.1000 122.800 3 45 992 0 2 210 150 0 27.1000 123.200 3 48 985 26.8000 123.100 TS 45 990 7 316
1995229N12144 1995 47 WP MM JANIS 1995-08-24 09:00:00 TS 27.2229 122.718 main 163 125 PPPP__________ WP101995 27.2073 122.400 52 0 27.3996 122.649 3 45 991 0 2 195 135 27.2424 122.965 3 48 985 27.0424 122.857 TS 47 987 7 320
1995229N12144 1995 47 WP MM JANIS 1995-08-24 12:00:00 TS 27.4750 122.475 45 990 tokyo main 125 89 OOOO__________ jtwc_wp WP101995 27.5000 122.100 55 0 27.7000 122.500 3 45 990 0 2 180 120 0 27.4000 122.700 3 48 985 27.3000 122.600 STS 50 985 7 314
1995229N12144 1995 47 WP MM JANIS 1995-08-24 15:00:00 TS 27.7264 122.131 main 83 38 PPPP__________ WP101995 27.7351 121.735 55 0 27.9579 122.108 3 45 990 0 2 180 120 27.6350 122.365 3 53 982 27.5774 122.315 STS 47 987 8 310
1995229N12144 1995 47 WP MM JANIS 1995-08-24 18:00:00 TS 28.0000 121.775 45 990 tokyo main 38 0 OOOO__________ jtwc_wp WP101995 28.0000 121.400 55 0 28.2000 121.700 3 45 990 0 2 180 120 0 27.9000 122.000 3 58 980 27.9000 122.000 TS 45 990 8 313
1995229N12144 1995 47 WP MM JANIS 1995-08-24 21:00:00 TS 28.2838 121.462 main 0 0 PPPP__________ WP101995 28.3624 121.162 52 0 28.4049 121.447 3 42 991 0 2 165 110 28.0976 121.612 3 48 987 28.2702 121.628 TS 42 991 8 323
1995229N12144 1995 47 WP MM JANIS 1995-08-25 00:00:00 TS 28.6500 121.225 40 992 tokyo main 0 0 OOOO__________ jtwc_wp WP101995 28.8000 121.000 50 0 28.7000 121.300 3 40 992 0 2 150 100 0 28.4000 121.300 2 38 995 28.7000 121.300 TS 40 992 9 338
1995229N12144 1995 47 WP MM JANIS 1995-08-25 03:00:00 TS 29.1462 121.071 main 0 0 PPPP__________ WP101995 29.2625 120.855 47 0 29.2050 121.213 3 37 994 0 2 150 100 28.9549 121.133 2 38 995 29.1624 121.083 TS 37 993 11 351
1995229N12144 1995 47 WP MM JANIS 1995-08-25 06:00:00 TS 29.7250 121.025 35 996 tokyo main 0 0 OOOO__________ jtwc_wp WP101995 29.8000 120.800 45 0 29.8000 121.200 3 35 996 0 2 150 100 0 29.6000 121.100 2 38 995 29.7000 121.000 TS 35 994 12 0
1995229N12144 1995 47 WP MM JANIS 1995-08-25 09:00:00 TS 30.2950 121.071 main 11 0 PPPP__________ WP101995 30.4275 120.855 40 0 30.3275 121.220 3 35 996 0 2 150 100 30.1050 121.170 2 38 995 30.3199 121.040 TS 35 994 12 7
1995229N12144 1995 47 WP MM JANIS 1995-08-25 12:00:00 TS 30.9250 121.200 35 996 tokyo main 0 0 OOOO__________ jtwc_wp WP101995 31.1000 121.000 35 0 30.9000 121.300 3 35 996 0 2 150 100 0 30.7000 121.300 2 38 995 31.0000 121.200 TS 35 994 14 9
1995229N12144 1995 47 WP MM JANIS 1995-08-25 15:00:00 TS 31.6286 121.324 main 9 0 PPPP__________ WP101995 31.7197 121.141 35 0 31.5624 121.406 3 35 996 0 2 150 100 31.5548 121.349 2 36 995 31.6773 121.398 TS 35 994 15 11
1995229N12144 1995 47 WP MM JANIS 1995-08-25 18:00:00 TS 32.4000 121.540 35 996 tokyo main 9 9 OOOO__________ jtwc_wp WP101995 32.4000 121.400 35 0 32.3000 121.600 3 35 996 0 2 150 100 0 32.5000 121.500 2 34 995 32.4000 121.700 TS 35 994 17 17
1995229N12144 1995 47 WP MM JANIS 1995-08-25 21:00:00 TS 33.2196 121.895 main 98 98 PPPP__________ WP101995 33.2275 121.832 37 0 33.0619 121.862 3 995 0 2 33.3875 121.882 2 34 995 33.1830 122.115 TS 35 994 18 23
1995229N12144 1995 47 WP MM JANIS 1995-08-26 00:00:00 MX 34.0615 122.385 994 tokyo main 178 178 OOOO__________ jtwc_wp WP101995 34.1000 122.400 40 0 33.9000 122.300 6 994 0 0 0 34.2000 122.400 2 34 995 34.0000 122.600 TS 35 994 19 27
1995229N12144 1995 47 WP MM JANIS 1995-08-26 03:00:00 MX 34.9031 122.925 main 218 175 PPP___________ WP101995 34.9365 122.976 42 0 34.8866 122.929 6 993 0 0 34.8862 122.870 2 34 995 TS 19 33
1995229N12144 1995 47 WP MM JANIS 1995-08-26 06:00:00 MX 35.6667 123.667 992 tokyo main 171 140 OOO___________ jtwc_wp WP101995 35.7000 123.700 45 0 35.8000 123.800 6 992 0 0 0 35.5000 123.500 2 34 995 20 46
1995229N12144 1995 47 WP MM JANIS 1995-08-26 09:00:00 MX 36.2983 124.677 main 132 37 PPP___________ WP101995 36.3605 124.655 47 0 36.4350 124.980 6 991 0 0 36.0996 124.397 2 31 995 21 55
1995229N12144 1995 47 WP MM JANIS 1995-08-26 12:00:00 MX 36.8333 125.767 990 tokyo main 28 11 OOO___________ jtwc_wp WP101995 36.9000 125.700 50 0 36.9000 126.100 6 990 0 0 0 36.7000 125.500 1 29 995 19 56
1995229N12144 1995 47 WP MM JANIS 1995-08-26 15:00:00 MX 37.3567 126.645 main 0 0 PPP___________ WP101995 37.3511 126.644 45 0 37.3167 126.581 6 991 0 0 37.4023 126.710 1 29 993 17 56
1995229N12144 1995 47 WP MM JANIS 1995-08-26 18:00:00 MX 37.8000 127.600 992 tokyo main 0 0 OOO___________ jtwc_wp WP101995 37.7000 127.600 40 0 37.7000 127.200 6 992 0 0 0 38.0000 128.000 1 29 992 19 66
1995229N12144 1995 47 WP MM JANIS 1995-08-26 21:00:00 MX 38.1398 128.838 main 14 14 PPP___________ WP101995 38.0004 128.583 40 0 38.1255 128.683 6 994 0 0 38.2934 129.247 1 29 995 22 74
1995229N12144 1995 47 WP MM JANIS 1995-08-27 00:00:00 MX 38.4000 130.233 996 tokyo main 123 123 OOO___________ jtwc_wp WP101995 38.2000 129.700 40 0 38.5000 130.500 6 996 0 0 0 38.5000 130.500 1 29 998 23 78
1995229N12144 1995 47 WP MM JANIS 1995-08-27 03:00:00 MX 38.6131 131.666 main 247 247 PPP___________ WP101995 38.2417 131.029 40 0 38.7719 132.197 6 996 0 0 38.8256 131.771 1 29 998 23 79
1995229N12144 1995 47 WP MM JANIS 1995-08-27 06:00:00 MX 38.8333 133.133 996 tokyo main 358 275 OOO___________ jtwc_wp WP101995 38.3000 132.500 40 0 39.0000 133.800 6 996 0 0 0 39.2000 133.100 1 29 998 23 77
1995229N12144 1995 47 WP MM JANIS 1995-08-27 09:00:00 MX 39.1184 134.589 main 269 233 PPP___________ WP101995 38.5317 134.036 40 0 39.2098 135.213 6 996 0 0 39.6137 134.520 1 29 998 23 74
1995229N12144 1995 47 WP MM JANIS 1995-08-27 12:00:00 MX 39.4667 136.033 996 tokyo main 243 204 OOO___________ jtwc_wp WP101995 38.9000 135.600 40 0 39.5000 136.500 6 996 0 0 0 40.0000 136.000 1 29 998 23 70
1995229N12144 1995 47 WP MM JANIS 1995-08-27 15:00:00 MX 39.9001 137.419 main 195 88 PPP___________ WP101995 39.3822 137.092 40 0 40.0113 137.710 6 996 0 0 40.3067 137.455 1 29 998 23 69
1995229N12144 1995 47 WP MM JANIS 1995-08-27 18:00:00 ET 40.3000 138.867 996 tokyo main 81 0 OOO___________ jtwc_wp WP101995 39.9000 138.600 40 0 40.5000 139.000 6 996 0 0 0 40.5000 139.000 9 29 998 24 74
1995229N12144 1995 47 WP MM JANIS 1995-08-27 21:00:00 ET 40.5717 140.469 main 0 0 PPP___________ WP101995 40.3553 140.118 40 0 40.7858 140.575 6 997 0 0 40.5739 140.712 9 29 998 25 82
1995229N12144 1995 47 WP MM JANIS 1995-08-28 00:00:00 ET 40.6667 142.167 998 tokyo main 53 53 OOO___________ jtwc_wp WP101995 40.7000 141.800 40 0 40.8000 142.200 6 998 0 0 0 40.5000 142.500 9 29 998 26 91
1995229N12144 1995 47 WP MM JANIS 1995-08-28 03:00:00 ET 40.5290 143.927 main 166 166 PPP___________ WP101995 40.8383 143.683 40 0 40.4609 143.771 6 1000 0 0 40.2879 144.327 9 29 998 26 97
1995229N12144 1995 47 WP MM JANIS 1995-08-28 06:00:00 ET 40.3273 145.600 1002 tokyo main 268 268 OOO___________ jtwc_wp WP101995 40.9000 145.900 40 0 40.0000 145.000 6 1002 0 0 0 40.0000 146.000 9 29 998 24 97
1995229N12144 1995 47 WP MM JANIS 1995-08-28 09:00:00 ET 40.2445 147.061 main 355 355 PPP___________ WP101995 41.0222 148.536 40 0 39.7201 145.443 6 1003 0 0 39.7378 147.349 9 29 998 26 91
1995229N12144 1995 47 WP MM JANIS 1995-08-28 12:00:00 ET 40.3000 149.012 1004 tokyo main 433 433 OOO___________ jtwc_wp WP101995 41.1000 151.400 40 0 39.5000 146.000 6 1004 0 0 0 39.5000 148.500 9 29 998 37 87
1995229N12144 1995 47 WP MM JANIS 1995-08-28 15:00:00 ET 40.4583 151.961 main 593 593 PP____________ WP101995 41.0524 154.212 40 0 39.2703 147.461 6 1004 0 0 9 49 87
1995229N12144 1995 47 WP MM JANIS 1995-08-28 18:00:00 ET 40.6000 155.500 1004 tokyo main 727 727 OO____________ jtwc_wp WP101995 41.0000 157.000 40 0 39.0000 149.500 6 1004 0 0 0 59 85
1995229N12144 1995 47 WP MM JANIS 1995-08-28 21:00:00 NR 40.9719 159.779 main 942 942 P_____________ WP101995 40.9719 159.779 37 0 6 0 0 52 85
1995229N12144 1995 47 WP MM JANIS 1995-08-29 00:00:00 NR 41.1000 162.400 main 1109 1109 O_____________ jtwc_wp WP101995 41.1000 162.400 35 0 38 82
1995229N12144 1995 47 WP MM JANIS 1995-08-29 03:00:00 NR 41.4906 164.778 main 1183 1183 P_____________ WP101995 41.4906 164.778 35 0 36 75
1995229N12144 1995 47 WP MM JANIS 1995-08-29 06:00:00 NR 42.0000 167.000 main 1244 1244 O_____________ jtwc_wp WP101995 42.0000 167.000 35 0 35 75
1995229N12144 1995 47 WP MM JANIS 1995-08-29 09:00:00 NR 42.3779 169.296 main 1332 1332 P_____________ WP101995 42.3779 169.296 35 0 33 76
1995229N12144 1995 47 WP MM JANIS 1995-08-29 12:00:00 NR 42.8000 171.300 main 1399 1399 O_____________ jtwc_wp WP101995 42.8000 171.300 35 0 28 69
1995229N12144 1995 47 WP MM JANIS 1995-08-29 15:00:00 NR 43.3798 172.823 main 1422 1422 P_____________ WP101995 43.3798 172.823 35 0 23 59
1995229N12144 1995 47 WP MM JANIS 1995-08-29 18:00:00 NR 44.0000 174.000 main 1429 1426 O_____________ jtwc_wp WP101995 44.0000 174.000 35 0 20 54
1995229N12144 1995 47 WP MM JANIS 1995-08-29 21:00:00 NR 44.5330 175.028 main 1441 1405 P_____________ WP101995 44.5330 175.028 32 -1 17 55
1995229N12144 1995 47 WP MM JANIS 1995-08-30 00:00:00 NR 45.0000 176.000 main 1400 O_____________ jtwc_wp WP101995 45.0000 176.000 30 -1 17 56

Digital Typhoon Data and Search

About IBTrACS Database

This database is a web-friendly format of International Best Track Archive for Climate Stewardship (IBTrACS), a global best track data archive curated by NOAA dating back to 1842.

Updated: 2021-11-26